Bookmark and Share
Track history (hours):
 

Phaethon

Last reported at 2014-Apr-14 08:33 UTC. Time now 2014-Apr-23 09:25 UTC.
Position S 34°07' E 017°55'.
Warning: this ship's position is 9 days out of date.

Length 274 m; draft 9.2 m.

Type: Tanker. MMSI: 240836000.

NotesDate/timePositionNaut miles runAvg speedWind from/ knotsBaromVisibWave heightAir tempDewpointWater temp
2014-Apr-14 08:33S 34°07' E 017°55'1010.1
2014-Apr-14 07:32S 34°16' E 018°02'10 9.8
2014-Apr-14 06:33S 34°24' E 018°08'9 9.4
2014-Apr-14 05:33S 34°28' E 018°18'7210.3
2014-Apr-13 22:33S 34°56' E 019°39'95 9.3
2014-Apr-13 12:20S 34°51' E 021°35'22 9.7
2014-Apr-13 10:06S 34°48' E 022°02'610.2
2014-Apr-13 09:32S 34°47' E 022°09'13 9.8
2014-Apr-13 08:13S 34°46' E 022°24'191 9.6
2014-Apr-12 12:21S 34°15' E 026°12'3211.4
2014-Apr-12 09:32S 34°06' E 026°50'30413.0
2014-Apr-11 10:08S 30°25' E 030°57'813.5
2014-Apr-11 09:33S 30°18' E 030°60'1312.9
2014-Apr-11 08:33S 30°05' E 031°03'1313.0
2014-Apr-11 07:33S 29°52' E 031°06'3 3.2
2014-Apr-11 06:30S 29°53' E 031°02'0 0.0
2014-Apr-11 05:24S 29°53' E 031°02'0 0.0
2014-Apr-11 03:30S 29°53' E 031°02'0 0.0
2014-Apr-11 02:12S 29°53' E 031°02'0 0.0
2014-Apr-11 01:24S 29°53' E 031°02'0 0.0
2014-Apr-11 00:18S 29°53' E 031°02'0 0.0
2014-Apr-10 23:12S 29°53' E 031°02'0 0.0
2014-Apr-10 22:18S 29°53' E 031°02'0 0.0
2014-Apr-10 18:30S 29°53' E 031°02'0 0.0
2014-Apr-10 17:12S 29°53' E 031°02'0 0.0
2014-Apr-10 16:30S 29°53' E 031°02'0 0.0
2014-Apr-10 15:24S 29°53' E 031°02'0 0.0
2014-Apr-10 10:24S 29°53' E 031°02'0 0.0
2014-Apr-10 08:06S 29°53' E 031°02'0 0.0
2014-Apr-10 07:07S 29°53' E 031°02'1 1.9
2014-Apr-10 06:33S 29°52' E 031°03'4 4.1
2014-Apr-10 05:33S 29°50' E 031°07'5 4.8
2014-Apr-10 04:32S 29°48' E 031°12'0 0.1
2014-Apr-10 03:08S 29°48' E 031°12'0 0.0
2014-Apr-10 02:32S 29°48' E 031°12'0 0.0
2014-Apr-10 01:32S 29°48' E 031°12'0 0.0
2014-Apr-10 00:32S 29°48' E 031°12'0 0.0
2014-Apr-09 23:26S 29°48' E 031°12'0 0.0
2014-Apr-09 22:26S 29°48' E 031°12'0 0.0
2014-Apr-09 21:26S 29°48' E 031°12'0 0.0
2014-Apr-09 20:32S 29°48' E 031°12'0 0.0
2014-Apr-09 19:26S 29°48' E 031°12'0 0.0
2014-Apr-09 18:26S 29°48' E 031°12'0 0.0
2014-Apr-09 17:26S 29°48' E 031°12'0 0.1
2014-Apr-09 16:23S 29°48' E 031°12'3 3.6
2014-Apr-09 15:33S 29°51' E 031°11'3 3.1
2014-Apr-09 14:33S 29°53' E 031°09'4 4.5
2014-Apr-09 13:33S 29°57' E 031°06'6 6.1
2014-Apr-09 12:32S 30°01' E 030°60'1 0.2
2014-Apr-09 03:28S 30°00' E 030°58'0 0.0
2014-Apr-09 02:28S 30°00' E 030°58'0 0.0
2014-Apr-09 01:16S 30°01' E 030°58'0 0.0
2014-Apr-09 00:22S 30°01' E 030°58'0 0.0
2014-Apr-08 23:22S 30°01' E 030°58'0 0.0
2014-Apr-08 21:28S 30°00' E 030°58'0 0.0
2014-Apr-08 19:28S 30°01' E 030°58'0 0.0
2014-Apr-08 15:28S 30°01' E 030°58'0 0.0
2014-Apr-08 07:33S 30°01' E 030°58'1 0.7
2014-Apr-08 06:07S 30°01' E 030°59'4 6.6
2014-Apr-08 05:33S 29°59' E 031°02'8 7.5
2014-Apr-08 04:33S 29°53' E 031°08'2 2.5
2014-Apr-08 03:33S 29°51' E 031°10'7 7.4
2014-Apr-08 02:33S 29°45' E 031°15'0 0.2
2014-Apr-08 01:26S 29°45' E 031°15'0 0.0
2014-Apr-08 00:26S 29°45' E 031°15'0 0.0
2014-Apr-07 23:20S 29°45' E 031°15'0 0.0
2014-Apr-07 22:20S 29°45' E 031°15'0 0.0
2014-Apr-07 21:08S 29°45' E 031°15'0 0.0
2014-Apr-07 20:32S 29°45' E 031°15'0 0.0
2014-Apr-07 19:14S 29°45' E 031°15'0 0.0
2014-Apr-07 17:26S 29°45' E 031°15'0 0.0
2014-Apr-07 16:32S 29°45' E 031°15'0 0.0
2014-Apr-07 15:20S 29°45' E 031°15'0 0.0
2014-Apr-07 14:14S 29°45' E 031°15'0 0.0
2014-Apr-07 13:20S 29°45' E 031°15'0 0.0
2014-Apr-07 11:26S 29°45' E 031°15'0 0.0
2014-Apr-07 10:26S 29°45' E 031°15'0 0.0
2014-Apr-07 09:32S 29°45' E 031°15'0 0.0
2014-Apr-07 08:26S 29°45' E 031°15'0 0.0
2014-Apr-07 07:32S 29°45' E 031°15'0 0.0
2014-Apr-07 06:20S 29°45' E 031°15'0 0.0
2014-Apr-07 05:32S 29°45' E 031°15'0 0.0
2014-Apr-07 04:15S 29°45' E 031°15'0 0.1
2014-Apr-07 03:33S 29°45' E 031°15'0 0.0
2014-Apr-07 02:26S 29°45' E 031°15'0 0.0
2014-Apr-07 01:32S 29°45' E 031°15'0 0.0
2014-Apr-07 00:26S 29°45' E 031°15'0 0.0
2014-Apr-06 23:26S 29°45' E 031°15'0 0.0
2014-Apr-06 22:32S 29°45' E 031°15'0 0.0
2014-Apr-06 21:32S 29°45' E 031°15'0 0.0
2014-Apr-06 20:26S 29°45' E 031°15'0 0.0
2014-Apr-06 19:26S 29°45' E 031°15'0 0.0
2014-Apr-06 18:20S 29°45' E 031°15'0 0.1
2014-Apr-06 17:32S 29°45' E 031°15'0 0.0
2014-Apr-06 16:26S 29°45' E 031°15'0 0.0
2014-Apr-06 15:32S 29°45' E 031°15'2 2.1
2014-Apr-06 14:33S 29°47' E 031°16'6 5.9
2014-Apr-06 13:33S 29°51' E 031°21'1 0.8
2014-Apr-06 12:33S 29°51' E 031°20'1 1.5
2014-Apr-06 11:33S 29°49' E 031°19'2 1.6
2014-Apr-06 10:33S 29°49' E 031°18'1 1.5
2014-Apr-06 09:33S 29°48' E 031°16'1 1.2
2014-Apr-06 08:33S 29°47' E 031°15'2 1.9
2014-Apr-06 07:31S 29°45' E 031°14'0 0.0
2014-Apr-06 06:31S 29°45' E 031°14'0 0.0
2014-Apr-06 05:31S 29°45' E 031°14'0 0.1
2014-Apr-06 04:29S 29°46' E 031°14'4 4.5
2014-Apr-06 03:32S 29°50' E 031°14'8 7.8
2014-Apr-06 02:33S 29°57' E 031°12'7 7.2
2014-Apr-06 01:33S 30°05' E 031°11'8 7.7
2014-Apr-06 00:30S 30°12' E 031°11'6 6.8
2014-Apr-05 23:33S 30°19' E 031°08'7 6.5
2014-Apr-05 22:33S 30°25' E 031°05'43 7.0
2014-Apr-05 16:22S 31°06' E 030°49'27 9.3
2014-Apr-05 13:29S 31°30' E 030°36'  

Dump ship's entire track history

sailing weather and tide predictions

Phaethon — SVAM2 — position and weather